Riverside, CA (92505)

11:27 AM PDT on September 22, 2014 (GMT -0700)
La Sierra / Country View Estates | Change Station
CLOSE
Current Station
Personal Weather Station
Location: Riverside, CA
Elevation: 856 ft
Nearby Weather Stations

Elev 856 ft 33.95 °N, 117.49 °W | Updated 12 minutes ago

Clear
Clear
79.7 °F
Feels Like 81 °F
N
2.0
Wind Variable Wind from SW
Gusts 10.0 mph

Today
High -- | Low -- °F
--% Chance of Precip.
Yesterday
High -- | Low -- °F
Precip. -- in
6:38 AM 6:46 PM
Waning Crescent, 2% visible
Pressure 29.95 in
Visibility 10.0 miles
Clouds Clear
Heat Index 81 °F
Dew Point 62 °F
Humidity 55%
Rainfall 0.00 in
Snow Depth 0 in , 0 in , 1 in
UV 7 out of 12
Pollen 6.60 out of 12
Ozone Good
PM2.5 Moderate
Flu Activity Not available.
METAR KRAL 221753Z 28004KT 10SM CLR 26/14 A2999 RMK AO2 SLP140 T02560144 10256 20161 50003

More Conditions Fewer Conditions

Pressure 29.95 in
Visibility 10.0 miles
Clouds Clear
Heat Index 81 °F
Dew Point 62 °F
Humidity 55%
Rainfall 0.00 in
Snow Depth 0 in , 0 in , 1 in
UV 7 out of 12
Pollen 6.60 out of 12
Ozone Good
PM2.5 Moderate
Flu Activity Not available.
METAR KRAL 221753Z 28004KT 10SM CLR 26/14 A2999 RMK AO2 SLP140 T02560144 10256 20161 50003

More Conditions Fewer Conditions

10-Day Weather Forecast

Almanac

Astronomy

Sep. 22, 2014 Rise Set
Actual Time 6:38 AM PDT 6:46 PM PDT
Civil Twilight 6:13 AM PDT 7:11 PM PDT
Nautical Twilight 5:44 AM PDT 7:40 PM PDT
Astronomical Twilight 5:14 AM PDT 8:09 PM PDT
Moon 5:13 AM PDT 5:55 PM PDT
Length of Visible Light 12h 58m
Length of Day
12h 08m
Tomorrow will be 2m 6s shorter.
Waning Crescent, 2% of the Moon is Illuminated
Today
Waning Crescent
Sep 24
New
Oct 1
First Quarter
Oct 8
Full
Oct 15
Last Quarter

Today's Extremes

State Highs State Lows

Community

WunderPhotos

Upload Photos

1,755,506 photos uploaded!

WunderBlogs® & News

By Dr. Jeff Masters
Director of Meteorology, Weather Underground
By Kari Strenfel
Meteorologist, Weather Underground
By Christopher C. Burt
Weather Historian, Weather Underground
September 22, 2014
September 22, 2014
September 22, 2014

Nearby

Air Quality

  Air Quality AQ Index Pollutant
Yesterday Good
PM10
Yesterday Good
OZONE
Current Moderate
PM2.5
Current Good
OZONE
Monday Good
PM10
Monday Moderate
OZONE
Monday Good
CO
Monday Good
NO2

Snow Depth

Station Depth Elevation
Leavitt Meadows 0 in 7200 ft
Adin Mountain 0 in 6200 ft
Summit Meadow 1 in 9122 ft
Monitor Pass 0 in 8350 ft

Earthquake Activity

City Distance Mag. Time & Date
Big Bear Lake, California 36 miles 2.5 7:26 AM PDT
2014-09-22
Borrego Springs, California 80 miles 2.6 7:34 AM PDT
2014-09-21
Aguanga, California 50 miles 2.5 1:38 AM PDT
2014-09-19
Minimum magnitude displayed is 2.5.

Coastal Water Temperatures

Place Temperature
Santa Monica Pier 70.0 °F
Los Angeles, CA 66.9 °F
La Jolla, CA 69.1 °F

Nearby Weather Stations